createdAt,value
2022-12-31T09:17:42.102Z,910.00
2022-12-31T09:18:42.100Z,957.00
2022-12-31T09:19:42.063Z,841.00
2022-12-31T09:20:43.803Z,794.00
2022-12-31T09:21:42.046Z,963.00
2022-12-31T09:22:42.037Z,874.00
2022-12-31T09:23:42.043Z,526.00
2022-12-31T09:24:42.014Z,582.00
2022-12-31T09:25:42.007Z,739.00
2022-12-31T09:26:42.007Z,909.00
2022-12-31T09:27:41.975Z,1218.00
2022-12-31T09:28:41.971Z,973.00
2022-12-31T09:29:41.956Z,723.00
2022-12-31T09:30:41.943Z,543.00
2022-12-31T09:31:41.954Z,524.00
2022-12-31T09:32:41.926Z,378.00
2022-12-31T09:33:41.912Z,601.00
2022-12-31T09:34:41.905Z,469.00
2022-12-31T09:35:41.884Z,747.00
2022-12-31T09:36:41.886Z,802.00
2022-12-31T09:37:41.874Z,484.00
2022-12-31T09:38:41.864Z,552.00
2022-12-31T09:39:41.845Z,1268.00
2022-12-31T09:40:41.838Z,859.00
2022-12-31T09:41:41.836Z,870.00
2022-12-31T09:42:41.814Z,718.00
2022-12-31T09:43:41.791Z,858.00
2022-12-31T09:44:41.783Z,1455.00
2022-12-31T09:45:41.887Z,2024.00
2022-12-31T09:46:41.783Z,1572.00
2022-12-31T09:47:41.770Z,871.00
2022-12-31T09:48:41.753Z,949.00
2022-12-31T09:49:41.757Z,1357.00
2022-12-31T09:50:41.738Z,1974.00
2022-12-31T09:51:41.721Z,1299.00
2022-12-31T09:52:41.721Z,754.00
2022-12-31T09:53:41.699Z,1207.00
2022-12-31T09:54:41.683Z,943.00
2022-12-31T09:55:41.677Z,1122.00
2022-12-31T09:56:41.707Z,687.00
2022-12-31T09:57:41.643Z,1307.00
2022-12-31T09:58:41.634Z,1435.00
2022-12-31T09:59:41.646Z,1089.00
2022-12-31T10:00:41.614Z,808.00
2022-12-31T10:01:41.783Z,683.00
2022-12-31T10:02:41.820Z,770.00
2022-12-31T10:03:41.623Z,738.00
2022-12-31T10:04:41.570Z,551.00
2022-12-31T10:05:41.565Z,231.00
2022-12-31T10:06:41.564Z,1390.00
2022-12-31T10:07:43.159Z,1439.00
2022-12-31T10:08:41.524Z,1127.00
2022-12-31T10:09:41.511Z,1798.00
2022-12-31T10:10:41.508Z,1300.00
2022-12-31T10:11:41.506Z,1544.00
2022-12-31T10:12:41.483Z,1055.00
2022-12-31T10:13:41.465Z,641.00
2022-12-31T10:14:47.133Z,266.00
2022-12-31T10:15:42.444Z,527.00
2022-12-31T10:16:41.536Z,3183.00
2022-12-31T10:17:41.437Z,3157.00
2022-12-31T10:18:41.429Z,2164.00
2022-12-31T10:19:41.467Z,1423.00
2022-12-31T10:20:45.320Z,1275.00
2022-12-31T10:21:41.403Z,1853.00
2022-12-31T10:22:41.374Z,1626.00
2022-12-31T10:23:41.364Z,1085.00
2022-12-31T10:24:41.478Z,1138.00
2022-12-31T10:25:41.360Z,2092.00
2022-12-31T10:26:41.325Z,1876.00
2022-12-31T10:27:41.323Z,1177.00
2022-12-31T10:28:41.344Z,1525.00
2022-12-31T10:29:42.294Z,1302.00
2022-12-31T10:30:41.320Z,1938.00
2022-12-31T10:31:41.266Z,2072.00
2022-12-31T10:32:41.265Z,1384.00
2022-12-31T10:33:41.255Z,2196.00
2022-12-31T10:34:41.288Z,1630.00
2022-12-31T10:35:41.255Z,1431.00
2022-12-31T10:36:41.217Z,1160.00
2022-12-31T10:37:41.217Z,706.00
2022-12-31T10:38:41.202Z,1109.00
2022-12-31T10:39:41.184Z,1439.00
2022-12-31T10:40:41.753Z,813.00
2022-12-31T10:41:41.155Z,1314.00
2022-12-31T10:42:41.185Z,1305.00
2022-12-31T10:43:41.176Z,1914.00
2022-12-31T10:44:41.255Z,1754.00
2022-12-31T10:45:41.134Z,1624.00
2022-12-31T10:46:41.123Z,2377.00
2022-12-31T10:47:41.100Z,1795.00
2022-12-31T10:48:41.094Z,1235.00
2022-12-31T10:49:41.066Z,1773.00
2022-12-31T10:50:41.055Z,3428.00
2022-12-31T10:51:41.049Z,3106.00
2022-12-31T10:52:42.071Z,2404.00
2022-12-31T10:53:41.025Z,2494.00
2022-12-31T10:54:41.016Z,1662.00
2022-12-31T10:55:40.997Z,2751.00
2022-12-31T10:56:40.994Z,2681.00
2022-12-31T10:57:41.143Z,1851.00
2022-12-31T10:58:40.976Z,2679.00
2022-12-31T10:59:40.965Z,3101.00
2022-12-31T11:00:40.964Z,2917.00
2022-12-31T11:01:41.000Z,2365.00
2022-12-31T11:02:41.125Z,2322.00
2022-12-31T11:03:40.959Z,2373.00
2022-12-31T11:04:40.980Z,2888.00
2022-12-31T11:05:40.914Z,2531.00
2022-12-31T11:06:40.892Z,3107.00
2022-12-31T11:07:40.875Z,2518.00
2022-12-31T11:08:40.869Z,1607.00
2022-12-31T11:09:40.863Z,1406.00
2022-12-31T11:10:40.840Z,2068.00
2022-12-31T11:11:40.927Z,2852.00
2022-12-31T11:12:40.847Z,3904.00
2022-12-31T11:13:40.824Z,2889.00
2022-12-31T11:14:40.812Z,3429.00
2022-12-31T11:15:43.919Z,2436.00
2022-12-31T11:16:41.785Z,1422.00
2022-12-31T11:17:40.798Z,728.00
2022-12-31T11:18:40.776Z,767.00
2022-12-31T11:19:40.739Z,1130.00
2022-12-31T11:20:40.727Z,1198.00
2022-12-31T11:21:41.790Z,1166.00
2022-12-31T11:22:40.735Z,1262.00
2022-12-31T11:23:40.782Z,1600.00
2022-12-31T11:24:40.689Z,3127.00
2022-12-31T11:25:40.724Z,2838.00
2022-12-31T11:26:40.709Z,2719.00
2022-12-31T11:27:42.701Z,3773.00
2022-12-31T11:28:40.646Z,4271.00
2022-12-31T11:29:40.652Z,4098.00
2022-12-31T11:30:40.681Z,2716.00
2022-12-31T11:31:40.598Z,2721.00
2022-12-31T11:32:40.660Z,1767.00
2022-12-31T11:33:45.370Z,3564.00
2022-12-31T11:34:41.584Z,4062.00
2022-12-31T11:35:40.555Z,3727.00
2022-12-31T11:36:40.548Z,3468.00
2022-12-31T11:37:40.561Z,3656.00
2022-12-31T11:38:40.536Z,2618.00
2022-12-31T11:39:40.522Z,2832.00
2022-12-31T11:40:40.528Z,2384.00
2022-12-31T11:41:40.507Z,2648.00
2022-12-31T11:42:40.635Z,2879.00
2022-12-31T11:43:40.475Z,2190.00
2022-12-31T11:44:40.476Z,2634.00
2022-12-31T11:45:43.232Z,2039.00
2022-12-31T11:46:41.543Z,2161.00
2022-12-31T11:48:03.979Z,2252.00
2022-12-31T11:48:41.507Z,2065.00
2022-12-31T11:49:40.485Z,2387.00
2022-12-31T11:50:40.395Z,2425.00
2022-12-31T11:51:42.136Z,1956.00
2022-12-31T11:52:41.376Z,1386.00
2022-12-31T11:53:40.367Z,1654.00
2022-12-31T11:54:40.354Z,1998.00
2022-12-31T11:55:40.341Z,1840.00
2022-12-31T11:56:40.360Z,1857.00
2022-12-31T11:57:40.317Z,1519.00
2022-12-31T11:58:40.327Z,1817.00
2022-12-31T11:59:40.306Z,1492.00
2022-12-31T12:00:40.288Z,1893.00
2022-12-31T12:01:40.277Z,1473.00
2022-12-31T12:02:40.321Z,1101.00
2022-12-31T12:03:40.310Z,1165.00
2022-12-31T12:04:40.236Z,2493.00
2022-12-31T12:05:40.223Z,3297.00
2022-12-31T12:06:40.245Z,2617.00
2022-12-31T12:07:40.205Z,2142.00
2022-12-31T12:08:40.217Z,1481.00
2022-12-31T12:09:40.223Z,2809.00
2022-12-31T12:10:40.172Z,2819.00
2022-12-31T12:11:40.184Z,2179.00
2022-12-31T12:12:40.155Z,1630.00
2022-12-31T12:13:40.158Z,2584.00
2022-12-31T12:14:40.142Z,1542.00
2022-12-31T12:15:40.115Z,2587.00
2022-12-31T12:16:40.195Z,2622.00
2022-12-31T12:17:40.092Z,2489.00
2022-12-31T12:18:40.093Z,2425.00
2022-12-31T12:19:40.078Z,2501.00
2022-12-31T12:20:40.064Z,3995.00
2022-12-31T12:21:40.046Z,3975.00
2022-12-31T12:22:42.820Z,3254.00
2022-12-31T12:23:41.019Z,3277.00
2022-12-31T12:24:40.042Z,3831.00
2022-12-31T12:25:40.003Z,4367.00
2022-12-31T12:26:39.996Z,4763.00
2022-12-31T12:27:39.978Z,4558.00
2022-12-31T12:28:44.109Z,2752.00
2022-12-31T12:29:39.977Z,3716.00
2022-12-31T12:30:39.958Z,4441.00
2022-12-31T12:31:40.051Z,4666.00
2022-12-31T12:32:39.946Z,4158.00
2022-12-31T12:33:39.927Z,3558.00
2022-12-31T12:34:44.433Z,3258.00
2022-12-31T12:35:40.896Z,2622.00
2022-12-31T12:36:39.907Z,1998.00
2022-12-31T12:37:39.876Z,1842.00
2022-12-31T12:38:39.879Z,1966.00
2022-12-31T12:39:39.881Z,1571.00
2022-12-31T12:40:39.836Z,1394.00
2022-12-31T12:41:39.829Z,1340.00
2022-12-31T12:42:39.823Z,1539.00
2022-12-31T12:43:39.816Z,1461.00
2022-12-31T12:44:39.827Z,1224.00
2022-12-31T12:45:39.787Z,995.00
2022-12-31T12:46:42.552Z,684.00
2022-12-31T12:47:40.757Z,1173.00
2022-12-31T12:48:39.764Z,1003.00
2022-12-31T12:49:39.800Z,889.00
2022-12-31T12:50:39.741Z,981.00
2022-12-31T12:51:39.753Z,907.00
2022-12-31T12:52:39.749Z,793.00
2022-12-31T12:53:39.713Z,1114.00
2022-12-31T12:54:39.750Z,1030.00
2022-12-31T12:55:39.680Z,986.00
2022-12-31T12:56:39.664Z,975.00
2022-12-31T12:57:39.674Z,1078.00
2022-12-31T12:58:39.638Z,938.00
2022-12-31T12:59:39.668Z,785.00
2022-12-31T13:00:39.654Z,793.00
2022-12-31T13:01:39.748Z,843.00
2022-12-31T13:02:39.650Z,792.00
2022-12-31T13:03:48.666Z,695.00
2022-12-31T13:04:40.595Z,589.00
2022-12-31T13:05:39.573Z,452.00
2022-12-31T13:06:39.551Z,335.00
2022-12-31T13:07:39.541Z,424.00
2022-12-31T13:08:39.528Z,457.00
2022-12-31T13:09:39.528Z,421.00
2022-12-31T13:10:39.510Z,422.00
2022-12-31T13:11:39.499Z,359.00
2022-12-31T13:13:13.842Z,1041.00
2022-12-31T13:13:40.478Z,803.00
2022-12-31T13:14:39.485Z,667.00
2022-12-31T13:15:39.492Z,581.00
2022-12-31T13:16:39.476Z,515.00
2022-12-31T13:17:39.450Z,647.00
2022-12-31T13:18:39.442Z,485.00
2022-12-31T13:19:39.463Z,574.00
2022-12-31T13:20:39.386Z,307.00
2022-12-31T13:21:39.387Z,626.00
2022-12-31T13:22:39.373Z,495.00
2022-12-31T13:23:39.937Z,622.00
2022-12-31T13:24:39.364Z,547.00
2022-12-31T13:25:39.348Z,448.00
2022-12-31T13:26:39.369Z,607.00
2022-12-31T13:27:39.338Z,758.00
2022-12-31T13:28:39.317Z,653.00
2022-12-31T13:29:39.322Z,515.00
2022-12-31T13:30:39.294Z,488.00
2022-12-31T13:31:39.354Z,399.00
2022-12-31T13:32:39.270Z,347.00
2022-12-31T13:33:39.279Z,341.00
2022-12-31T13:34:39.268Z,463.00
2022-12-31T13:35:39.240Z,446.00
2022-12-31T13:36:39.218Z,499.00
2022-12-31T13:37:39.220Z,562.00
2022-12-31T13:38:39.203Z,807.00
2022-12-31T13:39:39.220Z,847.00
2022-12-31T13:40:39.179Z,718.00
2022-12-31T13:41:39.180Z,706.00
2022-12-31T13:42:39.159Z,699.00
2022-12-31T13:43:39.175Z,660.00
2022-12-31T13:44:39.131Z,607.00
2022-12-31T13:45:39.154Z,704.00
2022-12-31T13:46:39.110Z,550.00
2022-12-31T13:47:39.112Z,439.00
2022-12-31T13:48:39.090Z,501.00
2022-12-31T13:49:39.080Z,488.00
2022-12-31T13:50:39.120Z,592.00
2022-12-31T13:51:39.072Z,502.00
2022-12-31T13:52:39.037Z,499.00
2022-12-31T13:53:39.040Z,581.00
2022-12-31T13:54:39.030Z,575.00
2022-12-31T13:55:39.031Z,463.00
2022-12-31T13:56:39.003Z,529.00
2022-12-31T13:57:38.992Z,539.00
2022-12-31T13:58:38.983Z,577.00
2022-12-31T13:59:38.971Z,764.00
2022-12-31T14:00:39.053Z,587.00
2022-12-31T14:01:39.069Z,443.00
2022-12-31T14:02:39.043Z,566.00
2022-12-31T14:03:38.929Z,417.00
2022-12-31T14:04:38.914Z,543.00
2022-12-31T14:05:38.919Z,612.00
2022-12-31T14:06:38.898Z,619.00
2022-12-31T14:07:45.307Z,987.00
2022-12-31T14:08:39.876Z,613.00
2022-12-31T14:09:38.883Z,1007.00
2022-12-31T14:10:38.859Z,1034.00
2022-12-31T14:11:38.879Z,921.00
2022-12-31T14:12:38.829Z,920.00
2022-12-31T14:13:38.847Z,894.00
2022-12-31T14:14:38.810Z,947.00
2022-12-31T14:15:38.812Z,776.00
2022-12-31T14:16:38.802Z,920.00
2022-12-31T14:17:38.775Z,728.00
2022-12-31T14:18:38.759Z,520.00
2022-12-31T14:19:41.332Z,501.00
2022-12-31T14:20:38.751Z,551.00
2022-12-31T14:21:38.736Z,586.00
2022-12-31T14:22:38.719Z,501.00
2022-12-31T14:23:38.710Z,509.00
2022-12-31T14:24:38.688Z,349.00
2022-12-31T14:25:38.690Z,552.00
2022-12-31T14:26:38.670Z,700.00
2022-12-31T14:27:38.668Z,697.00
2022-12-31T14:28:43.129Z,722.00
2022-12-31T14:29:39.649Z,775.00
2022-12-31T14:30:38.621Z,658.00
2022-12-31T14:31:38.644Z,515.00
2022-12-31T14:32:38.614Z,409.00
2022-12-31T14:33:38.591Z,452.00
2022-12-31T14:34:38.637Z,534.00
2022-12-31T14:35:38.607Z,566.00
2022-12-31T14:36:38.561Z,517.00
2022-12-31T14:37:38.549Z,432.00
2022-12-31T14:38:38.528Z,391.00
2022-12-31T14:39:38.570Z,401.00
2022-12-31T14:40:38.520Z,468.00
2022-12-31T14:41:38.552Z,431.00
2022-12-31T14:42:38.538Z,340.00
2022-12-31T14:43:38.479Z,310.00
2022-12-31T14:44:38.459Z,265.00
2022-12-31T14:45:38.617Z,211.00
2022-12-31T14:46:38.465Z,271.00
2022-12-31T14:47:38.439Z,351.00
2022-12-31T14:48:38.441Z,448.00
2022-12-31T14:49:38.410Z,488.00
2022-12-31T14:50:38.427Z,487.00
2022-12-31T14:51:38.389Z,486.00
2022-12-31T14:52:38.407Z,418.00
2022-12-31T14:53:38.372Z,340.00
2022-12-31T14:54:38.356Z,329.00
2022-12-31T14:55:38.377Z,347.00
2022-12-31T14:56:38.352Z,330.00
2022-12-31T14:58:01.540Z,292.00
2022-12-31T14:58:39.343Z,290.00
2022-12-31T14:59:40.585Z,326.00
2022-12-31T15:00:38.360Z,346.00
2022-12-31T15:01:38.398Z,328.00
2022-12-31T15:02:38.445Z,346.00
2022-12-31T15:03:44.702Z,377.00
2022-12-31T15:04:39.241Z,371.00
2022-12-31T15:05:38.253Z,344.00
2022-12-31T15:06:38.225Z,305.00
2022-12-31T15:07:38.212Z,298.00
2022-12-31T15:08:38.228Z,327.00
2022-12-31T15:09:38.260Z,330.00
2022-12-31T15:10:38.185Z,310.00
2022-12-31T15:11:38.174Z,296.00
2022-12-31T15:12:38.161Z,286.00
2022-12-31T15:13:38.192Z,270.00
2022-12-31T15:14:38.171Z,242.00
2022-12-31T15:15:38.144Z,214.00
2022-12-31T15:16:38.168Z,178.00
2022-12-31T15:17:38.104Z,149.00
2022-12-31T15:18:38.089Z,131.00
2022-12-31T15:19:38.081Z,130.00
2022-12-31T15:20:38.071Z,127.00
2022-12-31T15:21:38.066Z,127.00
2022-12-31T15:22:38.062Z,127.00
2022-12-31T15:23:38.044Z,125.00
2022-12-31T15:24:38.029Z,117.00
2022-12-31T15:25:41.176Z,107.00
2022-12-31T15:26:38.012Z,101.00
2022-12-31T15:27:37.997Z,91.00
2022-12-31T15:28:37.973Z,86.00
2022-12-31T15:29:37.972Z,82.00
2022-12-31T15:30:38.062Z,78.00
2022-12-31T15:31:38.049Z,74.00
2022-12-31T15:32:37.949Z,70.00
2022-12-31T15:33:37.939Z,66.00
2022-12-31T15:34:37.916Z,61.00
2022-12-31T15:35:37.906Z,53.00
2022-12-31T15:36:37.893Z,46.00
2022-12-31T15:37:37.894Z,44.00
2022-12-31T15:38:37.863Z,40.00
2022-12-31T15:39:37.862Z,35.00
2022-12-31T15:40:37.841Z,32.00
2022-12-31T15:41:37.843Z,29.00
2022-12-31T15:42:39.927Z,25.00
2022-12-31T15:43:37.811Z,22.00
2022-12-31T15:44:37.803Z,18.00
2022-12-31T15:45:37.792Z,13.00
2022-12-31T15:46:37.817Z,7.00
2022-12-31T15:47:37.792Z,10.00
2022-12-31T15:48:37.755Z,13.00
2022-12-31T15:49:37.747Z,9.00
2022-12-31T15:50:37.782Z,8.00
2022-12-31T15:51:37.735Z,6.00
2022-12-31T15:52:37.727Z,7.00
2022-12-31T15:53:37.708Z,5.00
2022-12-31T15:54:37.687Z,5.00
2022-12-31T15:55:37.701Z,4.00
2022-12-31T15:56:37.663Z,3.00
2022-12-31T15:57:37.668Z,3.00
2022-12-31T15:58:37.655Z,3.00
2022-12-31T15:59:37.636Z,2.00
2022-12-31T16:00:37.630Z,2.00
2022-12-31T16:01:37.719Z,1.00
2022-12-31T16:02:37.761Z,1.00
2022-12-31T16:03:37.645Z,1.00
2022-12-31T16:04:37.642Z,0.00
2022-12-31T16:05:37.660Z,0.00
2022-12-31T16:06:37.610Z,0.00
2022-12-31T16:07:37.615Z,0.00
2022-12-31T16:08:37.600Z,0.00
2022-12-31T16:09:37.612Z,0.00
2022-12-31T16:10:37.632Z,0.00
2022-12-31T16:11:37.557Z,0.00
2022-12-31T16:12:44.145Z,0.00
2022-12-31T16:13:38.534Z,0.00
2022-12-31T16:14:37.522Z,0.00
2022-12-31T16:15:37.565Z,0.00
2022-12-31T16:16:37.514Z,0.00
2022-12-31T16:17:37.494Z,0.00
2022-12-31T16:18:37.483Z,0.00
2022-12-31T16:19:37.473Z,0.00
2022-12-31T16:20:37.453Z,0.00
2022-12-31T16:21:37.461Z,0.00
2022-12-31T16:22:37.472Z,0.00
2022-12-31T16:23:42.188Z,0.00
2022-12-31T16:25:02.687Z,0.00
2022-12-31T16:25:38.412Z,0.00
2022-12-31T16:26:37.387Z,0.00
2022-12-31T16:27:37.396Z,0.00
2022-12-31T16:28:37.370Z,0.00
2022-12-31T16:29:37.353Z,0.00
2022-12-31T16:30:37.371Z,0.00
2022-12-31T16:31:37.404Z,0.00
2022-12-31T16:32:37.364Z,0.00
2022-12-31T16:33:37.325Z,0.00
2022-12-31T16:34:37.302Z,0.00
2022-12-31T16:35:37.385Z,0.00
2022-12-31T16:36:37.286Z,0.00
2022-12-31T16:37:37.285Z,0.00
2022-12-31T16:38:37.251Z,0.00
2022-12-31T16:39:37.245Z,0.00
2022-12-31T16:40:37.258Z,0.00
2022-12-31T16:41:37.242Z,0.00
2022-12-31T16:42:43.934Z,0.00
2022-12-31T16:43:38.217Z,0.00
2022-12-31T16:44:37.552Z,0.00
2022-12-31T16:45:37.180Z,0.00
2022-12-31T16:46:37.179Z,0.00
2022-12-31T16:47:37.164Z,0.00
2022-12-31T16:48:37.164Z,0.00
2022-12-31T16:49:37.156Z,0.00
2022-12-31T16:50:37.134Z,0.00
2022-12-31T16:51:37.133Z,0.00
2022-12-31T16:52:37.115Z,0.00
2022-12-31T16:53:37.117Z,0.00
2022-12-31T16:54:37.126Z,0.00
2022-12-31T16:55:37.084Z,0.00
2022-12-31T16:56:37.067Z,0.00
2022-12-31T16:57:37.057Z,0.00
2022-12-31T16:58:37.021Z,0.00
2022-12-31T16:59:37.036Z,0.00
2022-12-31T17:00:37.015Z,0.00
2022-12-31T17:01:37.261Z,0.00
2022-12-31T17:02:37.085Z,0.00
2022-12-31T17:03:37.006Z,0.00
2022-12-31T17:04:43.139Z,0.00
2022-12-31T17:05:38.022Z,0.00
2022-12-31T17:06:36.953Z,0.00
2022-12-31T17:07:36.966Z,0.00
2022-12-31T17:08:36.915Z,0.00
2022-12-31T17:09:36.913Z,0.00
2022-12-31T17:10:36.912Z,0.00
2022-12-31T17:11:36.897Z,0.00
2022-12-31T17:13:00.493Z,0.00
2022-12-31T17:13:37.873Z,0.00
2022-12-31T17:14:36.854Z,0.00
2022-12-31T17:15:36.926Z,0.00
2022-12-31T17:16:36.847Z,0.00
2022-12-31T17:17:36.825Z,0.00
2022-12-31T17:18:36.825Z,0.00
2022-12-31T17:19:36.821Z,0.00
2022-12-31T17:20:36.804Z,0.00
2022-12-31T17:21:36.840Z,0.00
2022-12-31T17:22:37.372Z,0.00
2022-12-31T17:23:36.764Z,0.00
2022-12-31T17:24:36.755Z,0.00
2022-12-31T17:25:36.760Z,0.00
2022-12-31T17:26:36.752Z,0.00
2022-12-31T17:27:36.714Z,0.00
2022-12-31T17:28:36.721Z,0.00
2022-12-31T17:29:36.687Z,0.00
2022-12-31T17:30:36.691Z,0.00
2022-12-31T17:31:36.786Z,0.00
2022-12-31T17:32:36.665Z,0.00
2022-12-31T17:33:36.654Z,0.00
2022-12-31T17:34:36.632Z,0.00
2022-12-31T17:35:36.633Z,0.00
2022-12-31T17:36:37.255Z,0.00
2022-12-31T17:37:36.596Z,0.00
2022-12-31T17:38:36.643Z,0.00
2022-12-31T17:39:36.591Z,0.00
2022-12-31T17:40:52.470Z,0.00
2022-12-31T17:41:37.653Z,0.00
2022-12-31T17:42:36.580Z,0.00
2022-12-31T17:43:36.786Z,0.00
2022-12-31T17:44:36.537Z,0.00
2022-12-31T17:45:36.529Z,0.00
2022-12-31T17:46:36.524Z,0.00
2022-12-31T17:47:36.486Z,0.00
2022-12-31T17:48:36.587Z,0.00
2022-12-31T17:49:36.463Z,0.00
2022-12-31T17:50:36.460Z,0.00
2022-12-31T17:51:36.837Z,0.00
2022-12-31T17:52:36.442Z,0.00
2022-12-31T17:53:36.438Z,0.00
2022-12-31T17:54:36.418Z,0.00
2022-12-31T17:55:36.399Z,0.00
2022-12-31T17:56:36.437Z,0.00
2022-12-31T17:57:36.386Z,0.00
2022-12-31T17:58:36.522Z,0.00
2022-12-31T17:59:36.353Z,0.00
2022-12-31T18:00:36.408Z,0.00
2022-12-31T18:01:36.514Z,0.00
2022-12-31T18:02:36.535Z,0.00
2022-12-31T18:03:36.325Z,0.00
2022-12-31T18:04:36.296Z,0.00
2022-12-31T18:05:36.285Z,0.00
2022-12-31T18:06:36.346Z,0.00
2022-12-31T18:07:36.266Z,0.00
2022-12-31T18:08:36.274Z,0.00
2022-12-31T18:09:36.245Z,0.00
2022-12-31T18:10:36.264Z,0.00
2022-12-31T18:11:36.217Z,0.00
2022-12-31T18:12:36.218Z,0.00
2022-12-31T18:13:36.222Z,0.00
2022-12-31T18:14:36.187Z,0.00
2022-12-31T18:15:36.180Z,0.00
2022-12-31T18:16:36.194Z,0.00
2022-12-31T18:17:36.206Z,0.00
2022-12-31T18:18:36.165Z,0.00
2022-12-31T18:20:03.564Z,0.00
2022-12-31T18:20:37.158Z,0.00
2022-12-31T18:21:36.156Z,0.00
2022-12-31T18:22:36.093Z,0.00
2022-12-31T18:23:36.083Z,0.00
2022-12-31T18:24:36.086Z,0.00
2022-12-31T18:26:21.830Z,0.00
2022-12-31T18:27:21.820Z,0.00
2022-12-31T18:28:21.814Z,0.00
2022-12-31T18:29:21.803Z,0.00
2022-12-31T18:30:21.792Z,0.00
2022-12-31T18:31:21.812Z,0.00
2022-12-31T18:32:21.764Z,0.00
2022-12-31T18:33:21.759Z,0.00
2022-12-31T18:34:21.763Z,0.00
2022-12-31T18:35:48.998Z,0.00
2022-12-31T18:36:22.730Z,0.00
2022-12-31T18:37:22.468Z,0.00
2022-12-31T18:38:21.716Z,0.00
2022-12-31T18:39:21.702Z,0.00
2022-12-31T18:40:21.709Z,0.00
2022-12-31T18:41:21.686Z,0.00
2022-12-31T18:42:21.757Z,0.00
2022-12-31T18:43:21.690Z,0.00
2022-12-31T18:44:21.649Z,0.00
2022-12-31T18:45:21.619Z,0.00
2022-12-31T18:46:21.642Z,0.00
2022-12-31T18:47:21.630Z,0.00
2022-12-31T18:48:21.663Z,0.00
2022-12-31T18:49:21.589Z,0.00
2022-12-31T18:50:21.732Z,0.00
2022-12-31T18:51:25.118Z,0.00
2022-12-31T18:52:22.561Z,0.00
2022-12-31T18:53:21.544Z,0.00
2022-12-31T18:54:21.538Z,0.00
2022-12-31T18:55:21.519Z,0.00
2022-12-31T18:56:21.510Z,0.00
2022-12-31T18:57:21.500Z,0.00
2022-12-31T18:58:21.479Z,0.00
2022-12-31T18:59:21.528Z,0.00
2022-12-31T19:00:21.450Z,0.00
2022-12-31T19:01:21.576Z,0.00
2022-12-31T19:02:23.106Z,0.00
2022-12-31T19:03:21.486Z,0.00
2022-12-31T19:04:27.719Z,0.00
2022-12-31T19:05:22.402Z,0.00
2022-12-31T19:06:21.401Z,0.00
2022-12-31T19:07:21.385Z,0.00
2022-12-31T19:08:21.389Z,0.00
2022-12-31T19:09:44.714Z,0.00
2022-12-31T19:10:22.341Z,0.00
2022-12-31T19:11:21.343Z,0.00
2022-12-31T19:12:21.343Z,0.00
2022-12-31T19:13:21.343Z,0.00
2022-12-31T19:14:21.323Z,0.00
2022-12-31T19:15:21.310Z,0.00
2022-12-31T19:16:21.295Z,0.00
2022-12-31T19:17:21.308Z,0.00
2022-12-31T19:18:21.261Z,0.00
2022-12-31T19:19:21.301Z,0.00
2022-12-31T19:20:21.579Z,0.00
2022-12-31T19:21:21.272Z,0.00
2022-12-31T19:22:21.274Z,0.00
2022-12-31T19:23:21.270Z,0.00
2022-12-31T19:24:21.401Z,0.00
2022-12-31T19:25:21.276Z,0.00
2022-12-31T19:26:21.224Z,0.00
2022-12-31T19:27:21.223Z,0.00
2022-12-31T19:28:21.224Z,0.00
2022-12-31T19:29:21.194Z,0.00
2022-12-31T19:30:21.150Z,0.00
2022-12-31T19:31:21.191Z,0.00
2022-12-31T19:32:21.140Z,0.00
2022-12-31T19:33:21.117Z,0.00
2022-12-31T19:34:21.133Z,0.00
2022-12-31T19:35:21.160Z,0.00
2022-12-31T19:36:21.099Z,0.00
2022-12-31T19:37:21.082Z,0.00
2022-12-31T19:38:21.078Z,0.00
2022-12-31T19:39:21.109Z,0.00
2022-12-31T19:40:21.062Z,0.00
2022-12-31T19:41:21.045Z,0.00
2022-12-31T19:42:21.030Z,0.00
2022-12-31T19:43:21.029Z,0.00
2022-12-31T19:44:21.055Z,0.00
2022-12-31T19:45:21.003Z,0.00
2022-12-31T19:46:21.032Z,0.00
2022-12-31T19:47:21.009Z,0.00
2022-12-31T19:48:20.959Z,0.00
2022-12-31T19:49:20.962Z,0.00
2022-12-31T19:50:21.283Z,0.00
2022-12-31T19:51:20.928Z,0.00
2022-12-31T19:52:20.900Z,0.00
2022-12-31T19:53:20.929Z,0.00
2022-12-31T19:54:20.889Z,0.00
2022-12-31T19:55:20.870Z,0.00
2022-12-31T19:56:20.882Z,0.00
2022-12-31T19:57:20.850Z,0.00
2022-12-31T19:58:20.843Z,0.00
2022-12-31T19:59:20.831Z,0.00
2022-12-31T20:00:20.810Z,0.00
2022-12-31T20:01:20.968Z,0.00
2022-12-31T20:02:20.903Z,0.00
2022-12-31T20:03:20.822Z,0.00
2022-12-31T20:04:20.762Z,0.00
2022-12-31T20:05:20.762Z,0.00
2022-12-31T20:06:20.769Z,0.00
2022-12-31T20:07:26.842Z,0.00
2022-12-31T20:08:21.708Z,0.00
2022-12-31T20:09:20.750Z,0.00
2022-12-31T20:10:20.707Z,0.00
2022-12-31T20:11:20.682Z,0.00
2022-12-31T20:12:20.679Z,0.00
2022-12-31T20:13:20.671Z,0.00
2022-12-31T20:14:20.781Z,0.00
2022-12-31T20:15:20.664Z,0.00
2022-12-31T20:16:20.657Z,0.00
2022-12-31T20:17:20.673Z,0.00
2022-12-31T20:18:20.640Z,0.00
2022-12-31T20:19:20.612Z,0.00
2022-12-31T20:20:20.610Z,0.00
2022-12-31T20:21:20.597Z,0.00
2022-12-31T20:22:20.560Z,0.00
2022-12-31T20:23:20.564Z,0.00
2022-12-31T20:24:20.550Z,0.00
2022-12-31T20:25:20.551Z,0.00
2022-12-31T20:26:20.537Z,0.00
2022-12-31T20:27:20.521Z,0.00
2022-12-31T20:28:20.500Z,0.00
2022-12-31T20:29:20.590Z,0.00
2022-12-31T20:30:20.494Z,0.00
2022-12-31T20:31:20.549Z,0.00
2022-12-31T20:32:20.460Z,0.00
2022-12-31T20:33:20.449Z,0.00
2022-12-31T20:34:20.432Z,0.00
2022-12-31T20:35:20.449Z,0.00
2022-12-31T20:36:20.412Z,0.00
2022-12-31T20:37:20.413Z,0.00
2022-12-31T20:38:20.414Z,0.00
2022-12-31T20:39:20.390Z,0.00
2022-12-31T20:40:20.410Z,0.00
2022-12-31T20:41:20.369Z,0.00
2022-12-31T20:42:20.350Z,0.00
2022-12-31T20:43:20.349Z,0.00
2022-12-31T20:44:20.332Z,0.00
2022-12-31T20:45:20.325Z,0.00
2022-12-31T20:46:20.374Z,0.00
2022-12-31T20:47:20.303Z,0.00
2022-12-31T20:48:20.291Z,0.00
2022-12-31T20:49:37.228Z,0.00
2022-12-31T20:50:21.268Z,0.00
2022-12-31T20:51:20.267Z,0.00
2022-12-31T20:52:20.240Z,0.00
2022-12-31T20:53:20.235Z,0.00
2022-12-31T20:54:20.220Z,0.00
2022-12-31T20:55:20.210Z,0.00
2022-12-31T20:56:20.206Z,0.00
2022-12-31T20:57:20.189Z,0.00
2022-12-31T20:58:20.190Z,0.00
2022-12-31T20:59:20.171Z,0.00
2022-12-31T21:00:20.163Z,0.00
2022-12-31T21:01:20.265Z,0.00
2022-12-31T21:02:21.636Z,0.00
2022-12-31T21:04:02.503Z,0.00
2022-12-31T21:04:21.379Z,0.00
2022-12-31T21:05:20.191Z,0.00
2022-12-31T21:06:20.122Z,0.00
2022-12-31T21:07:20.074Z,0.00
2022-12-31T21:08:20.061Z,0.00
2022-12-31T21:09:20.071Z,0.00
2022-12-31T21:10:20.070Z,0.00
2022-12-31T21:11:20.104Z,0.00
2022-12-31T21:12:20.030Z,0.00
2022-12-31T21:13:20.018Z,0.00
2022-12-31T21:14:20.011Z,0.00
2022-12-31T21:15:19.982Z,0.00
2022-12-31T21:16:19.996Z,0.00
2022-12-31T21:17:19.980Z,0.00
2022-12-31T21:18:19.964Z,0.00
2022-12-31T21:19:19.939Z,0.00
2022-12-31T21:20:19.953Z,0.00
2022-12-31T21:21:19.960Z,0.00
2022-12-31T21:22:19.913Z,0.00
2022-12-31T21:23:19.903Z,0.00
2022-12-31T21:24:23.856Z,0.00
2022-12-31T21:25:19.883Z,0.00
2022-12-31T21:26:19.890Z,0.00
2022-12-31T21:27:19.861Z,0.00
2022-12-31T21:28:19.852Z,0.00
2022-12-31T21:29:19.830Z,0.00
2022-12-31T21:30:21.033Z,0.00
2022-12-31T21:31:19.893Z,0.00
2022-12-31T21:32:19.806Z,0.00
2022-12-31T21:33:19.790Z,0.00
2022-12-31T21:34:19.800Z,0.00
2022-12-31T21:36:20.961Z,0.00
2022-12-31T21:37:19.746Z,0.00
2022-12-31T21:38:19.744Z,0.00
2022-12-31T21:39:19.726Z,0.00
2022-12-31T21:40:19.714Z,0.00
2022-12-31T21:41:19.703Z,0.00
2022-12-31T21:42:19.703Z,0.00
2022-12-31T21:43:19.693Z,0.00
2022-12-31T21:44:19.673Z,0.00
2022-12-31T21:45:19.662Z,0.00
2022-12-31T21:46:19.688Z,0.00
2022-12-31T21:47:39.469Z,0.00
2022-12-31T21:48:20.666Z,0.00
2022-12-31T21:49:19.613Z,0.00
2022-12-31T21:50:19.660Z,0.00
2022-12-31T21:51:19.592Z,0.00
2022-12-31T21:52:19.589Z,0.00
2022-12-31T21:53:24.141Z,0.00
2022-12-31T21:54:20.579Z,0.00
2022-12-31T21:55:19.552Z,0.00
2022-12-31T21:56:19.542Z,0.00
2022-12-31T21:57:19.533Z,0.00
2022-12-31T21:58:27.912Z,0.00
2022-12-31T21:59:20.504Z,0.00
2022-12-31T22:00:41.226Z,0.00
2022-12-31T22:01:20.590Z,0.00
2022-12-31T22:02:19.663Z,0.00
2022-12-31T22:03:19.505Z,0.00
2022-12-31T22:04:51.679Z,0.00
2022-12-31T22:05:25.090Z,0.00
2022-12-31T22:06:20.503Z,0.00